createdAt,value
2023-07-20T00:02:24.500Z,12.22
2023-07-20T00:04:55.753Z,12.18
2023-07-20T00:07:27.578Z,12.11
2023-07-20T00:09:58.328Z,12.12
2023-07-20T00:12:29.630Z,12.12
2023-07-20T00:15:01.064Z,12.12
2023-07-20T00:17:32.504Z,12.11
2023-07-20T00:20:04.055Z,12.11
2023-07-20T00:22:35.252Z,12.08
2023-07-20T00:25:07.737Z,12.08
2023-07-20T00:27:38.979Z,12.05
2023-07-20T00:30:11.342Z,12.06
2023-07-20T00:32:43.421Z,12.10
2023-07-20T00:35:14.931Z,12.10
2023-07-20T00:37:46.427Z,12.14
2023-07-20T00:40:17.873Z,12.08
2023-07-20T00:42:49.180Z,12.05
2023-07-20T00:45:26.244Z,12.08
2023-07-20T00:47:57.703Z,12.12
2023-07-20T00:50:31.493Z,12.06
2023-07-20T00:53:02.890Z,12.01
2023-07-20T00:55:34.906Z,12.01
2023-07-20T00:58:05.817Z,12.06
2023-07-20T01:00:39.251Z,12.11
2023-07-20T01:03:10.797Z,12.18
2023-07-20T01:06:02.919Z,12.12
2023-07-20T01:08:45.877Z,12.04
2023-07-20T01:11:28.111Z,11.91
2023-07-20T01:13:59.345Z,11.90
2023-07-20T01:16:31.442Z,11.88
2023-07-20T01:19:02.789Z,11.90
2023-07-20T01:21:55.112Z,11.88
2023-07-20T01:24:55.568Z,11.90
2023-07-20T01:28:01.413Z,11.93
2023-07-20T01:30:43.024Z,11.80
2023-07-20T01:33:19.049Z,11.75
2023-07-20T01:35:56.731Z,11.69
2023-07-20T01:38:28.564Z,11.66
2023-07-20T01:41:00.610Z,11.57
2023-07-20T01:43:32.113Z,11.53
2023-07-20T01:46:03.686Z,11.46
2023-07-20T01:48:35.461Z,11.44
2023-07-20T01:51:07.111Z,11.43
2023-07-20T01:53:38.425Z,11.42
2023-07-20T01:56:09.762Z,11.40
2023-07-20T01:58:41.934Z,11.36
2023-07-20T02:01:13.222Z,11.34
2023-07-20T02:03:44.669Z,11.30
2023-07-20T02:06:15.786Z,11.30
2023-07-20T02:08:47.059Z,11.30
2023-07-20T02:11:18.260Z,11.33
2023-07-20T02:13:48.738Z,11.33
2023-07-20T02:16:18.863Z,11.33
2023-07-20T02:18:50.375Z,11.39
2023-07-20T02:21:20.893Z,11.40
2023-07-20T02:23:51.370Z,11.39
2023-07-20T02:26:21.749Z,11.40
2023-07-20T02:28:52.450Z,11.44
2023-07-20T02:31:22.628Z,11.52
2023-07-20T02:33:52.751Z,11.54
2023-07-20T02:36:22.846Z,11.56
2023-07-20T02:38:54.453Z,11.50
2023-07-20T02:41:24.525Z,11.54
2023-07-20T02:43:54.818Z,11.52
2023-07-20T02:46:25.556Z,11.61
2023-07-20T02:48:56.010Z,11.63
2023-07-20T02:51:26.199Z,11.64
2023-07-20T02:53:56.346Z,11.69
2023-07-20T02:56:26.475Z,11.69
2023-07-20T02:58:56.828Z,11.69
2023-07-20T03:01:27.094Z,11.75
2023-07-20T03:03:58.553Z,11.78
2023-07-20T03:06:28.776Z,11.81
2023-07-20T03:08:59.316Z,11.83
2023-07-20T03:11:29.387Z,11.83
2023-07-20T03:14:01.015Z,11.77
2023-07-20T03:16:35.050Z,11.80
2023-07-20T03:19:05.993Z,11.81
2023-07-20T03:21:36.143Z,11.83
2023-07-20T03:24:06.508Z,11.77
2023-07-20T03:26:36.907Z,11.80
2023-07-20T03:29:26.453Z,11.78
2023-07-20T03:31:56.736Z,11.77
2023-07-20T03:34:26.989Z,11.80
2023-07-20T03:36:57.175Z,11.75
2023-07-20T03:39:27.375Z,11.71
2023-07-20T03:41:57.470Z,11.70
2023-07-20T03:44:27.720Z,11.67
2023-07-20T03:46:57.798Z,11.60
2023-07-20T03:49:27.746Z,11.54
2023-07-20T03:51:57.977Z,11.49
2023-07-20T03:54:28.134Z,11.49
2023-07-20T03:56:58.235Z,11.46
2023-07-20T03:59:28.518Z,11.43
2023-07-20T04:01:58.686Z,11.46
2023-07-20T04:04:29.197Z,11.46
2023-07-20T04:06:59.344Z,11.42
2023-07-20T04:09:29.568Z,11.39
2023-07-20T04:11:59.716Z,11.42
2023-07-20T04:14:29.887Z,11.37
2023-07-20T04:17:00.026Z,11.36
2023-07-20T04:19:30.111Z,11.36
2023-07-20T04:22:00.440Z,11.33
2023-07-20T04:24:30.561Z,11.33
2023-07-20T04:27:00.732Z,11.32
2023-07-20T04:29:31.427Z,11.39
2023-07-20T04:32:01.671Z,11.39
2023-07-20T04:34:32.652Z,11.42
2023-07-20T04:37:02.886Z,11.37
2023-07-20T04:39:33.671Z,11.43
2023-07-20T04:42:09.213Z,11.43
2023-07-20T04:44:40.184Z,11.46
2023-07-20T04:47:11.385Z,11.42
2023-07-20T04:49:42.197Z,11.36
2023-07-20T04:52:12.319Z,11.34
2023-07-20T04:54:42.922Z,11.26
2023-07-20T04:57:15.552Z,11.22
2023-07-20T04:59:51.244Z,11.18
2023-07-20T05:02:21.625Z,11.12
2023-07-20T05:04:52.477Z,11.09
2023-07-20T05:07:22.581Z,11.03
2023-07-20T05:09:53.536Z,10.99
2023-07-20T05:12:23.720Z,10.98
2023-07-20T05:14:53.694Z,10.96
2023-07-20T05:17:23.622Z,10.95
2023-07-20T05:19:54.743Z,10.93
2023-07-20T05:22:26.696Z,10.95
2023-07-20T05:24:57.020Z,10.95
2023-07-20T05:27:27.182Z,10.93
2023-07-20T05:29:58.025Z,10.89
2023-07-20T05:32:28.300Z,10.88
2023-07-20T05:34:58.400Z,10.83
2023-07-20T05:37:28.570Z,10.79
2023-07-20T05:40:00.016Z,10.75
2023-07-20T05:42:30.114Z,10.73
2023-07-20T05:45:00.522Z,10.71
2023-07-20T05:47:31.380Z,10.69
2023-07-20T05:50:01.811Z,10.69
2023-07-20T05:52:31.745Z,10.75
2023-07-20T05:55:01.683Z,10.79
2023-07-20T05:57:31.533Z,10.82
2023-07-20T06:00:01.647Z,10.82
2023-07-20T06:02:42.179Z,10.83
2023-07-20T06:05:12.343Z,10.82
2023-07-20T06:07:42.564Z,10.82
2023-07-20T06:10:12.857Z,10.83
2023-07-20T06:12:44.187Z,10.85
2023-07-20T06:15:40.610Z,10.82
2023-07-20T06:18:10.787Z,10.82
2023-07-20T06:20:40.830Z,10.81
2023-07-20T06:23:10.832Z,10.83
2023-07-20T06:25:41.049Z,10.86
2023-07-20T06:28:11.132Z,10.83
2023-07-20T06:30:41.675Z,10.89
2023-07-20T06:33:11.859Z,10.88
2023-07-20T06:35:48.131Z,10.96
2023-07-20T06:40:51.067Z,11.03
2023-07-20T06:45:58.472Z,11.12
2023-07-20T06:48:28.653Z,11.13
2023-07-20T06:50:59.700Z,11.19
2023-07-20T06:53:29.789Z,11.22
2023-07-20T06:55:59.673Z,11.26
2023-07-20T06:58:29.572Z,11.32
2023-07-20T07:00:59.556Z,11.32
2023-07-20T07:03:29.696Z,11.34
2023-07-20T07:06:00.073Z,11.34
2023-07-20T07:08:30.063Z,11.37
2023-07-20T07:11:00.341Z,11.37
2023-07-20T07:13:30.470Z,11.39
2023-07-20T07:16:00.576Z,11.40
2023-07-20T07:18:31.431Z,11.40
2023-07-20T07:21:03.170Z,11.39
2023-07-20T07:23:33.724Z,11.39
2023-07-20T07:26:03.618Z,11.39
2023-07-20T07:28:34.199Z,11.36
2023-07-20T07:31:08.694Z,11.33
2023-07-20T07:33:38.929Z,11.30
2023-07-20T07:36:09.347Z,11.26
2023-07-20T07:39:15.418Z,11.24
2023-07-20T07:41:30.554Z,11.19
2023-07-20T07:44:00.468Z,11.16
2023-07-20T07:46:30.721Z,11.13
2023-07-20T07:49:01.038Z,11.03
2023-07-20T07:51:31.211Z,10.93
2023-07-20T07:54:01.850Z,10.88
2023-07-20T07:56:32.118Z,10.85
2023-07-20T07:59:02.016Z,10.81
2023-07-20T08:01:32.429Z,10.78
2023-07-20T08:04:03.035Z,10.76
2023-07-20T08:06:33.848Z,10.72
2023-07-20T08:09:04.369Z,10.69
2023-07-20T08:11:36.033Z,10.68
2023-07-20T08:14:06.227Z,10.67
2023-07-20T08:16:36.464Z,10.64
2023-07-20T08:19:06.811Z,10.62
2023-07-20T08:21:37.642Z,10.60
2023-07-20T08:24:07.822Z,10.62
2023-07-20T08:26:38.099Z,10.55
2023-07-20T08:29:08.221Z,10.55
2023-07-20T08:31:38.715Z,10.52
2023-07-20T08:34:20.274Z,10.50
2023-07-20T08:36:54.864Z,10.45
2023-07-20T08:39:25.455Z,10.42
2023-07-20T08:41:56.023Z,10.40
2023-07-20T08:44:29.581Z,10.37
2023-07-20T08:47:01.539Z,10.36
2023-07-20T08:49:38.727Z,10.33
2023-07-20T08:52:09.479Z,10.31
2023-07-20T08:54:39.886Z,10.34
2023-07-20T08:57:10.925Z,10.33
2023-07-20T08:59:41.779Z,10.29
2023-07-20T09:02:20.096Z,10.31
2023-07-20T09:04:51.134Z,10.36
2023-07-20T09:07:22.948Z,10.41
2023-07-20T09:09:53.302Z,10.42
2023-07-20T09:12:23.441Z,10.41
2023-07-20T09:14:53.539Z,10.37
2023-07-20T09:17:30.438Z,10.38
2023-07-20T09:20:01.123Z,10.34
2023-07-20T09:22:34.465Z,10.34
2023-07-20T09:25:04.739Z,10.31
2023-07-20T09:27:41.985Z,10.31
2023-07-20T09:30:18.982Z,10.25
2023-07-20T09:32:55.966Z,10.27
2023-07-20T09:35:27.602Z,10.27
2023-07-20T09:50:59.233Z,10.21
2023-07-20T09:53:30.919Z,10.18
2023-07-20T09:56:02.128Z,10.20
2023-07-20T09:58:34.565Z,10.13
2023-07-20T10:01:07.754Z,10.10
2023-07-20T10:03:41.096Z,10.07
2023-07-20T10:06:13.879Z,10.09
2023-07-20T10:11:19.757Z,9.99
2023-07-20T10:13:53.722Z,9.94
2023-07-20T10:16:37.099Z,9.90
2023-07-20T10:19:33.462Z,9.93
2023-07-20T10:22:10.379Z,9.93
2023-07-20T10:24:42.380Z,9.94
2023-07-20T10:27:11.985Z,9.97
2023-07-20T10:29:43.180Z,9.99
2023-07-20T10:32:13.879Z,10.00
2023-07-20T10:34:44.269Z,10.07
2023-07-20T10:37:50.563Z,10.13
2023-07-20T10:40:40.365Z,10.14
2023-07-20T10:43:12.227Z,10.24
2023-07-20T10:46:01.531Z,10.37
2023-07-20T10:48:31.725Z,10.52
2023-07-20T10:51:23.727Z,10.64
2023-07-20T10:53:55.735Z,10.62
2023-07-20T10:56:28.748Z,10.57
2023-07-20T10:59:02.876Z,10.51
2023-07-20T11:01:34.241Z,10.48
2023-07-20T11:04:10.809Z,10.50
2023-07-20T11:06:45.690Z,10.54
2023-07-20T11:09:18.594Z,10.65
2023-07-20T11:11:50.732Z,10.76
2023-07-20T11:14:25.559Z,10.88
2023-07-20T11:16:57.735Z,10.92
2023-07-20T11:22:04.452Z,11.02
2023-07-20T11:24:35.102Z,11.08
2023-07-20T11:27:05.424Z,11.11
2023-07-20T11:29:35.522Z,11.18
2023-07-20T11:32:07.138Z,11.18
2023-07-20T11:34:38.371Z,11.26
2023-07-20T11:39:42.315Z,11.46
2023-07-20T11:42:12.805Z,11.57
2023-07-20T11:44:42.909Z,11.69
2023-07-20T11:47:14.328Z,11.77
2023-07-20T11:49:48.870Z,11.84
2023-07-20T11:52:19.934Z,11.87
2023-07-20T11:54:50.709Z,11.91
2023-07-20T11:57:21.891Z,11.95
2023-07-20T12:00:03.358Z,11.98
2023-07-20T12:02:35.666Z,12.06
2023-07-20T12:05:06.354Z,12.14
2023-07-20T12:07:39.350Z,12.26
2023-07-20T12:10:11.856Z,12.34
2023-07-20T12:12:46.862Z,12.43
2023-07-20T12:15:17.609Z,12.52
2023-07-20T12:17:48.951Z,12.59
2023-07-20T12:20:36.448Z,12.72
2023-07-20T12:23:14.935Z,12.84
2023-07-20T12:25:49.951Z,13.13
2023-07-20T12:28:22.183Z,13.30
2023-07-20T12:30:58.691Z,13.34
2023-07-20T12:33:28.812Z,13.40
2023-07-20T12:36:00.738Z,13.50
2023-07-20T12:38:31.288Z,13.65
2023-07-20T12:41:02.739Z,13.71
2023-07-20T12:43:34.337Z,13.82
2023-07-20T12:46:04.670Z,13.92
2023-07-20T12:48:35.460Z,14.04
2023-07-20T12:51:06.392Z,14.12
2023-07-20T12:53:36.776Z,14.26
2023-07-20T12:58:41.000Z,14.59
2023-07-20T13:01:11.361Z,14.73
2023-07-20T13:04:13.517Z,14.76
2023-07-20T13:06:31.568Z,14.89
2023-07-20T13:09:01.751Z,15.22
2023-07-20T13:11:31.881Z,15.18
2023-07-20T13:14:02.013Z,15.49
2023-07-20T13:16:32.019Z,15.55
2023-07-20T13:19:02.125Z,15.56
2023-07-20T13:21:32.210Z,15.62
2023-07-20T13:24:02.286Z,16.06
2023-07-20T13:26:32.440Z,16.16
2023-07-20T13:29:02.568Z,16.17
2023-07-20T13:31:33.540Z,16.32
2023-07-20T13:34:08.234Z,16.59
2023-07-20T13:36:38.601Z,16.72
2023-07-20T13:39:09.179Z,16.75
2023-07-20T13:41:40.027Z,16.86
2023-07-20T13:44:10.126Z,17.00
2023-07-20T13:46:44.730Z,17.18
2023-07-20T13:54:27.947Z,17.84
2023-07-20T13:56:58.630Z,18.00
2023-07-20T13:59:28.891Z,18.12
2023-07-20T14:04:32.676Z,18.46
2023-07-20T14:07:03.036Z,18.79
2023-07-20T14:09:33.286Z,18.89
2023-07-20T14:14:37.469Z,19.07
2023-07-20T14:17:07.806Z,19.08
2023-07-20T14:19:40.078Z,19.32
2023-07-20T14:39:53.143Z,20.24
2023-07-20T14:42:23.785Z,20.05
2023-07-20T14:44:53.822Z,20.05
2023-07-20T14:47:24.047Z,19.96
2023-07-20T14:49:54.276Z,20.19
2023-07-20T14:52:29.257Z,20.41
2023-07-20T14:54:59.783Z,20.61
2023-07-20T14:57:29.894Z,20.56
2023-07-20T14:59:59.991Z,20.51
2023-07-20T15:02:30.095Z,20.70
2023-07-20T15:05:00.277Z,20.95
2023-07-20T15:07:30.365Z,21.11
2023-07-20T15:10:00.475Z,21.29
2023-07-20T15:12:30.609Z,21.56
2023-07-20T15:15:10.637Z,21.80
2023-07-20T15:17:41.852Z,21.79
2023-07-20T15:20:14.278Z,21.73
2023-07-20T15:22:45.253Z,21.93
2023-07-20T15:25:17.238Z,22.21
2023-07-20T15:27:50.379Z,22.27
2023-07-20T15:35:27.532Z,22.31
2023-07-20T15:37:57.606Z,22.40
2023-07-20T15:40:28.047Z,22.65
2023-07-20T15:42:59.283Z,22.68
2023-07-20T15:45:32.361Z,22.72
2023-07-20T15:48:02.432Z,22.91
2023-07-20T15:50:32.538Z,23.03
2023-07-20T15:53:02.803Z,23.15
2023-07-20T15:55:32.894Z,23.20
2023-07-20T15:58:02.960Z,23.20
2023-07-20T16:00:33.123Z,23.46
2023-07-20T16:03:03.331Z,23.50
2023-07-20T16:05:33.502Z,23.42
2023-07-20T16:08:04.174Z,23.46
2023-07-20T16:10:35.351Z,23.66
2023-07-20T16:13:05.419Z,23.93
2023-07-20T16:18:08.995Z,24.25
2023-07-20T16:20:40.813Z,24.26
2023-07-20T16:23:10.846Z,24.24
2023-07-20T16:25:40.715Z,24.36
2023-07-20T16:28:12.088Z,24.49
2023-07-20T16:30:42.468Z,24.25
2023-07-20T16:33:12.404Z,24.24
2023-07-20T16:38:17.254Z,24.36
2023-07-20T16:44:05.907Z,24.40
2023-07-20T16:51:18.122Z,24.70
2023-07-20T16:53:48.250Z,24.83
2023-07-20T16:56:18.367Z,25.06
2023-07-20T16:58:48.907Z,25.11
2023-07-20T17:01:38.134Z,25.00
2023-07-20T17:04:08.288Z,25.17
2023-07-20T17:06:38.489Z,25.19
2023-07-20T17:09:08.656Z,25.23
2023-07-20T17:11:38.702Z,25.51
2023-07-20T17:14:08.526Z,25.92
2023-07-20T17:16:38.677Z,26.06
2023-07-20T17:19:11.310Z,26.32
2023-07-20T17:21:41.816Z,26.05
2023-07-20T17:24:12.804Z,26.29
2023-07-20T17:26:44.325Z,26.32
2023-07-20T17:29:14.719Z,26.73
2023-07-20T17:31:44.932Z,27.20
2023-07-20T17:34:15.049Z,26.87
2023-07-20T17:39:18.135Z,28.10
2023-07-20T17:41:48.456Z,28.45
2023-07-20T17:44:19.262Z,27.66
2023-07-20T17:49:22.843Z,28.12
2023-07-20T17:51:52.964Z,28.37
2023-07-20T17:54:23.022Z,28.96
2023-07-20T17:56:53.154Z,29.97
2023-07-20T17:59:23.360Z,29.97
2023-07-20T18:01:53.956Z,30.01
2023-07-20T18:04:24.049Z,30.74
2023-07-20T18:06:54.287Z,30.39
2023-07-20T18:09:24.394Z,29.59
2023-07-20T18:11:54.518Z,27.39
2023-07-20T18:14:24.593Z,26.87
2023-07-20T18:16:54.463Z,26.76
2023-07-20T18:19:24.506Z,26.03
2023-07-20T18:21:54.635Z,25.64
2023-07-20T18:24:24.522Z,25.41
2023-07-20T18:26:55.231Z,25.09
2023-07-20T18:29:26.034Z,24.79
2023-07-20T18:31:56.271Z,24.90
2023-07-20T18:34:26.355Z,24.97
2023-07-20T18:36:56.416Z,24.89
2023-07-20T18:39:26.519Z,24.75
2023-07-20T18:41:56.895Z,24.59
2023-07-20T18:44:28.005Z,24.48
2023-07-20T18:46:58.427Z,24.30
2023-07-20T18:49:28.788Z,24.11
2023-07-20T18:51:59.368Z,24.01
2023-07-20T18:54:29.601Z,23.94
2023-07-20T18:57:00.081Z,23.88
2023-07-20T18:59:30.198Z,23.82
2023-07-20T19:02:00.366Z,23.64
2023-07-20T19:04:30.528Z,23.53
2023-07-20T19:07:00.683Z,23.34
2023-07-20T19:09:30.788Z,23.17
2023-07-20T19:12:00.648Z,22.89
2023-07-20T19:14:30.818Z,22.76
2023-07-20T19:17:00.693Z,22.59
2023-07-20T19:19:33.405Z,22.55
2023-07-20T19:22:03.534Z,22.48
2023-07-20T19:24:33.418Z,22.37
2023-07-20T19:27:04.449Z,22.31
2023-07-20T19:29:34.463Z,22.24
2023-07-20T19:32:04.426Z,22.08
2023-07-20T19:34:35.212Z,21.96
2023-07-20T19:37:06.008Z,21.92
2023-07-20T19:39:36.081Z,21.82
2023-07-20T19:42:06.740Z,21.77
2023-07-20T19:44:36.770Z,21.67
2023-07-20T19:47:07.026Z,21.59
2023-07-20T19:49:37.137Z,21.53
2023-07-20T19:52:07.359Z,21.42
2023-07-20T19:54:37.452Z,21.39
2023-07-20T19:57:39.981Z,21.36
2023-07-20T19:59:58.153Z,21.24
2023-07-20T20:03:40.846Z,21.22
2023-07-20T20:05:18.519Z,21.15
2023-07-20T20:07:48.769Z,21.11
2023-07-20T20:10:18.978Z,21.05
2023-07-20T20:12:50.225Z,21.04
2023-07-20T20:15:20.282Z,20.99
2023-07-20T20:17:51.494Z,20.94
2023-07-20T20:20:21.917Z,20.90
2023-07-20T20:22:52.102Z,20.75
2023-07-20T20:25:22.152Z,20.63
2023-07-20T20:27:52.378Z,20.46
2023-07-20T20:30:26.106Z,20.33
2023-07-20T20:32:56.769Z,20.24
2023-07-20T20:35:27.521Z,20.15
2023-07-20T20:37:57.866Z,20.03
2023-07-20T20:40:29.065Z,20.06
2023-07-20T20:42:59.521Z,20.05
2023-07-20T20:45:29.996Z,20.00
2023-07-20T20:48:01.475Z,19.96
2023-07-20T20:50:31.621Z,19.96
2023-07-20T20:53:01.860Z,19.83
2023-07-20T20:55:32.440Z,19.82
2023-07-20T20:58:02.693Z,19.71
2023-07-20T21:00:33.356Z,19.68
2023-07-20T21:03:04.010Z,19.61
2023-07-20T21:05:39.011Z,19.59
2023-07-20T21:08:09.564Z,19.55
2023-07-20T21:10:39.961Z,19.52
2023-07-20T21:13:16.006Z,19.44
2023-07-20T21:15:46.203Z,19.45
2023-07-20T21:18:16.349Z,19.44
2023-07-20T21:20:46.863Z,19.42
2023-07-20T21:23:36.888Z,19.36
2023-07-20T21:26:07.049Z,19.32
2023-07-20T21:28:37.253Z,19.28
2023-07-20T21:31:09.769Z,19.27
2023-07-20T21:33:40.080Z,19.25
2023-07-20T21:36:10.565Z,19.18
2023-07-20T21:38:40.913Z,19.14
2023-07-20T21:41:11.561Z,19.15
2023-07-20T21:43:41.809Z,19.14
2023-07-20T21:46:11.926Z,19.15
2023-07-20T21:48:44.522Z,19.14
2023-07-20T21:51:14.674Z,19.20
2023-07-20T21:53:44.520Z,19.17
2023-07-20T21:56:14.619Z,19.15
2023-07-20T21:58:44.528Z,19.10
2023-07-20T22:01:44.184Z,19.06
2023-07-20T22:04:05.022Z,19.04
2023-07-20T22:06:35.216Z,19.01
2023-07-20T22:09:05.341Z,18.96
2023-07-20T22:11:35.389Z,18.99
2023-07-20T22:14:05.592Z,18.92
2023-07-20T22:16:35.819Z,18.97
2023-07-20T22:19:05.991Z,18.92
2023-07-20T22:21:36.041Z,18.87
2023-07-20T22:24:06.450Z,18.84
2023-07-20T22:26:36.561Z,18.86
2023-07-20T22:29:06.819Z,18.83
2023-07-20T22:31:37.124Z,18.82
2023-07-20T22:34:07.300Z,18.80
2023-07-20T22:36:37.388Z,18.77
2023-07-20T22:39:08.026Z,18.76
2023-07-20T22:41:38.265Z,18.72
2023-07-20T22:44:08.905Z,18.70
2023-07-20T22:46:39.167Z,18.70
2023-07-20T22:49:09.496Z,18.59
2023-07-20T22:51:40.017Z,18.53
2023-07-20T22:54:12.826Z,18.55
2023-07-20T22:56:42.704Z,18.51
2023-07-20T22:59:12.907Z,18.51
2023-07-20T23:01:46.239Z,18.49
2023-07-20T23:04:16.639Z,18.46
2023-07-20T23:06:46.879Z,18.42
2023-07-20T23:09:17.441Z,18.38
2023-07-20T23:11:48.001Z,18.32
2023-07-20T23:14:18.755Z,18.29
2023-07-20T23:16:49.011Z,18.29
2023-07-20T23:19:19.225Z,18.21
2023-07-20T23:21:50.895Z,18.16
2023-07-20T23:24:21.933Z,18.16
2023-07-20T23:26:55.649Z,18.12
2023-07-20T23:29:26.678Z,18.12
2023-07-20T23:31:57.640Z,18.13
2023-07-20T23:34:28.782Z,18.16
2023-07-20T23:36:59.671Z,18.11
2023-07-20T23:39:30.552Z,18.06
2023-07-20T23:42:04.288Z,17.98
2023-07-20T23:44:35.532Z,17.95
2023-07-20T23:47:08.032Z,17.97
2023-07-20T23:49:39.432Z,18.01
2023-07-20T23:52:10.887Z,18.05
2023-07-20T23:54:41.201Z,18.11
2023-07-20T23:57:13.014Z,18.09
2023-07-20T23:59:44.525Z,18.01
